createdAt,value
2023-01-13T00:01:24.791Z,13.10
2023-01-13T00:03:52.776Z,13.50
2023-01-13T00:06:21.749Z,14.20
2023-01-13T00:08:50.461Z,14.20
2023-01-13T00:11:18.218Z,13.50
2023-01-13T00:13:45.551Z,12.90
2023-01-13T00:16:15.845Z,13.10
2023-01-13T00:18:43.138Z,12.70
2023-01-13T00:21:10.283Z,13.70
2023-01-13T00:23:38.045Z,13.80
2023-01-13T00:26:07.768Z,12.40
2023-01-13T00:28:35.216Z,13.40
2023-01-13T00:31:07.030Z,12.70
2023-01-13T00:33:34.701Z,14.10
2023-01-13T00:36:02.420Z,14.40
2023-01-13T00:38:30.975Z,13.60
2023-01-13T00:40:59.160Z,12.30
2023-01-13T00:43:27.096Z,11.50
2023-01-13T00:45:54.901Z,12.70
2023-01-13T00:48:23.575Z,13.60
2023-01-13T00:50:58.088Z,13.80
2023-01-13T00:53:25.366Z,13.10
2023-01-13T00:56:30.532Z,13.70
2023-01-13T00:59:02.459Z,12.40
2023-01-13T01:01:29.925Z,12.80
2023-01-13T01:03:57.272Z,13.20
2023-01-13T01:06:25.986Z,13.40
2023-01-13T01:08:53.619Z,13.60
2023-01-13T01:11:26.408Z,12.80
2023-01-13T01:13:55.268Z,13.50
2023-01-13T01:16:23.440Z,11.50
2023-01-13T01:18:51.450Z,12.70
2023-01-13T01:21:18.797Z,12.50
2023-01-13T01:23:45.952Z,11.90
2023-01-13T01:26:21.191Z,12.00
2023-01-13T01:28:48.449Z,12.60
2023-01-13T01:31:20.638Z,12.90
2023-01-13T01:33:48.065Z,11.60
2023-01-13T01:36:16.658Z,11.70
2023-01-13T01:38:44.005Z,11.10
2023-01-13T01:41:22.415Z,11.90
2023-01-13T01:44:02.621Z,12.10
2023-01-13T01:46:38.019Z,12.20
2023-01-13T01:49:07.011Z,11.70
2023-01-13T01:51:37.438Z,11.20
2023-01-13T01:54:05.413Z,11.80
2023-01-13T01:56:33.559Z,11.10
2023-01-13T01:59:00.741Z,11.40
2023-01-13T02:01:28.670Z,11.20
2023-01-13T02:04:02.269Z,12.20
2023-01-13T02:06:30.052Z,11.70
2023-01-13T02:08:58.313Z,12.30
2023-01-13T02:11:51.813Z,11.40
2023-01-13T02:14:19.650Z,12.20
2023-01-13T02:16:53.184Z,12.00
2023-01-13T02:19:29.551Z,12.30
2023-01-13T02:22:13.919Z,11.80
2023-01-13T02:24:56.637Z,11.70
2023-01-13T02:27:42.823Z,11.30
2023-01-13T02:30:37.724Z,12.60
2023-01-13T02:33:27.711Z,11.90
2023-01-13T02:36:00.481Z,11.90
2023-01-13T02:38:37.683Z,12.60
2023-01-13T02:41:26.649Z,14.00
2023-01-13T02:44:09.271Z,14.00
2023-01-13T02:46:38.767Z,13.90
2023-01-13T02:49:08.073Z,12.80
2023-01-13T02:51:35.221Z,13.20
2023-01-13T02:54:14.444Z,13.00
2023-01-13T02:56:43.370Z,14.50
2023-01-13T02:59:10.492Z,14.70
2023-01-13T03:01:37.695Z,14.70
2023-01-13T03:04:15.446Z,15.30
2023-01-13T03:06:50.592Z,16.20
2023-01-13T03:09:30.235Z,15.10
2023-01-13T03:12:10.901Z,14.40
2023-01-13T03:14:59.256Z,14.90
2023-01-13T03:17:33.064Z,14.90
2023-01-13T03:20:24.505Z,14.80
2023-01-13T03:22:56.139Z,15.40
2023-01-13T03:25:26.465Z,14.90
2023-01-13T03:27:57.200Z,15.10
2023-01-13T03:30:34.525Z,14.70
2023-01-13T03:33:05.336Z,14.70
2023-01-13T03:35:38.531Z,16.40
2023-01-13T03:38:20.010Z,15.50
2023-01-13T03:40:51.786Z,15.80
2023-01-13T03:43:40.221Z,16.00
2023-01-13T03:46:10.003Z,15.90
2023-01-13T03:51:08.151Z,14.80
2023-01-13T03:53:40.509Z,15.40
2023-01-13T03:56:10.731Z,14.90
2023-01-13T03:58:48.127Z,15.40
2023-01-13T04:01:24.948Z,15.70
2023-01-13T04:03:57.519Z,16.30
2023-01-13T04:06:46.750Z,15.40
2023-01-13T04:09:29.267Z,12.20
2023-01-13T04:12:04.194Z,16.50
2023-01-13T04:14:31.348Z,17.10
2023-01-13T04:16:58.500Z,16.60
2023-01-13T04:19:25.664Z,17.60
2023-01-13T04:21:52.805Z,15.90
2023-01-13T04:24:19.956Z,17.40
2023-01-13T04:26:47.106Z,16.90
2023-01-13T04:29:15.656Z,17.60
2023-01-13T04:31:43.261Z,17.80
2023-01-13T04:34:11.089Z,19.40
2023-01-13T04:36:38.274Z,19.40
2023-01-13T04:39:05.444Z,18.00
2023-01-13T04:41:52.549Z,17.80
2023-01-13T04:44:19.799Z,18.20
2023-01-13T04:46:46.944Z,19.90
2023-01-13T04:49:14.103Z,19.10
2023-01-13T04:51:41.259Z,19.30
2023-01-13T04:54:11.151Z,19.20
2023-01-13T04:59:05.380Z,18.60
2023-01-13T05:01:32.792Z,18.90
2023-01-13T05:03:59.981Z,21.20
2023-01-13T05:06:27.127Z,19.80
2023-01-13T05:08:54.278Z,21.50
2023-01-13T05:11:40.273Z,20.60
2023-01-13T05:14:26.061Z,21.30
2023-01-13T05:17:03.871Z,19.30
2023-01-13T05:19:35.112Z,20.60
2023-01-13T05:22:21.516Z,19.90
2023-01-13T05:25:07.306Z,22.00
2023-01-13T05:27:34.450Z,21.60
2023-01-13T05:30:01.800Z,21.80
2023-01-13T05:32:28.956Z,20.30
2023-01-13T05:34:56.318Z,21.00
2023-01-13T05:37:24.077Z,20.20
2023-01-13T05:40:11.507Z,21.00
2023-01-13T05:42:57.288Z,21.30
2023-01-13T05:45:24.447Z,21.20
2023-01-13T05:47:51.700Z,22.40
2023-01-13T05:50:18.947Z,22.20
2023-01-13T05:52:46.101Z,22.00
2023-01-13T05:55:13.261Z,19.50
2023-01-13T05:57:40.908Z,20.90
2023-01-13T06:00:10.125Z,19.30
2023-01-13T06:02:40.280Z,19.10
2023-01-13T06:05:08.034Z,19.30
2023-01-13T06:07:35.253Z,18.60
2023-01-13T06:10:02.395Z,19.20
2023-01-13T06:12:29.545Z,19.40
2023-01-13T06:14:56.696Z,17.60
2023-01-13T06:17:23.852Z,16.60
2023-01-13T06:19:51.410Z,17.10
2023-01-13T06:22:32.587Z,17.80
2023-01-13T06:24:59.756Z,18.60
2023-01-13T06:27:26.888Z,17.00
2023-01-13T06:29:54.041Z,18.10
2023-01-13T06:32:26.866Z,17.80
2023-01-13T06:34:57.251Z,16.60
2023-01-13T06:37:26.452Z,16.20
2023-01-13T06:39:57.077Z,16.00
2023-01-13T06:42:53.625Z,17.10
2023-01-13T06:45:21.140Z,17.60
2023-01-13T06:47:48.245Z,17.10
2023-01-13T06:50:17.034Z,17.70
2023-01-13T06:52:44.380Z,18.00
2023-01-13T06:55:11.530Z,15.80
2023-01-13T06:57:54.509Z,15.10
2023-01-13T07:00:22.243Z,16.80
2023-01-13T07:02:49.511Z,15.70
2023-01-13T07:05:17.326Z,18.10
2023-01-13T07:07:44.489Z,16.90
2023-01-13T07:10:13.384Z,17.80
2023-01-13T07:13:00.403Z,12.30
2023-01-13T07:15:27.553Z,15.50
2023-01-13T07:17:54.703Z,16.30
2023-01-13T07:20:21.873Z,16.10
2023-01-13T07:22:49.422Z,15.70
2023-01-13T07:25:16.543Z,16.90
2023-01-13T07:27:43.620Z,18.10
2023-01-13T07:30:11.829Z,18.30
2023-01-13T07:32:38.948Z,16.90
2023-01-13T07:35:07.026Z,16.70
2023-01-13T07:37:35.103Z,16.10
2023-01-13T07:40:03.354Z,17.70
2023-01-13T07:42:49.167Z,17.10
2023-01-13T07:45:16.324Z,18.20
2023-01-13T07:47:43.468Z,17.30
2023-01-13T07:50:11.202Z,19.80
2023-01-13T07:52:38.299Z,20.10
2023-01-13T07:55:05.997Z,17.30
2023-01-13T07:57:33.204Z,18.80
2023-01-13T08:00:00.367Z,18.70
2023-01-13T08:02:27.693Z,19.50
2023-01-13T08:04:54.968Z,20.80
2023-01-13T08:07:22.222Z,20.90
2023-01-13T08:09:49.686Z,20.90
2023-01-13T08:12:35.695Z,19.20
2023-01-13T08:15:03.032Z,20.90
2023-01-13T08:17:30.227Z,19.40
2023-01-13T08:19:57.438Z,20.40
2023-01-13T08:22:24.900Z,21.10
2023-01-13T08:24:52.047Z,22.30
2023-01-13T08:27:20.748Z,21.70
2023-01-13T08:29:47.898Z,21.30
2023-01-13T08:32:15.043Z,21.30
2023-01-13T08:34:42.087Z,21.50
2023-01-13T08:37:09.137Z,21.40
2023-01-13T08:39:36.509Z,22.00
2023-01-13T08:42:04.838Z,21.60
2023-01-13T08:44:32.233Z,21.40
2023-01-13T12:49:06.928Z,20.40
2023-01-13T12:52:10.961Z,20.20
2023-01-13T12:54:41.041Z,18.90
2023-01-13T12:57:34.614Z,19.10
2023-01-13T13:00:05.005Z,19.30
2023-01-13T13:02:33.176Z,20.40
2023-01-13T13:05:23.926Z,19.90
2023-01-13T13:08:13.248Z,19.20
2023-01-13T13:10:45.376Z,20.40
2023-01-13T13:13:22.955Z,19.40
2023-01-13T13:15:50.884Z,19.10
2023-01-13T13:18:18.003Z,19.70
2023-01-13T13:20:54.500Z,20.80
2023-01-13T13:23:35.737Z,20.70
2023-01-13T13:26:45.976Z,21.40
2023-01-13T13:29:19.387Z,21.00
2023-01-13T13:32:05.488Z,20.40
2023-01-13T13:34:38.062Z,19.30
2023-01-13T13:37:08.284Z,19.80
2023-01-13T13:40:00.215Z,20.80
2023-01-13T13:42:47.041Z,21.70
2023-01-13T13:45:39.785Z,21.10
2023-01-13T13:48:27.418Z,21.40
2023-01-13T13:51:02.555Z,19.30
2023-01-13T13:53:34.802Z,20.70
2023-01-13T13:56:02.912Z,18.20
2023-01-13T13:58:31.767Z,19.60
2023-01-13T14:00:59.012Z,19.40
2023-01-13T14:03:31.762Z,19.50
2023-01-13T14:05:59.797Z,20.80
2023-01-13T14:08:37.877Z,20.10
2023-01-13T14:11:27.982Z,18.10
2023-01-13T14:14:06.167Z,18.60
2023-01-13T14:16:36.121Z,17.90
2023-01-13T14:19:03.755Z,18.60
2023-01-13T14:21:30.991Z,18.50
2023-01-13T14:23:59.541Z,19.30
2023-01-13T14:26:28.489Z,18.20
2023-01-13T14:28:56.146Z,16.80
2023-01-13T14:31:23.333Z,17.90
2023-01-13T14:34:01.690Z,16.20
2023-01-13T14:36:31.816Z,18.40
2023-01-13T14:39:05.519Z,18.40
2023-01-13T14:41:53.586Z,19.70
2023-01-13T14:44:29.218Z,17.20
2023-01-13T14:47:17.664Z,17.00
2023-01-13T14:49:52.184Z,16.80
2023-01-13T14:52:24.248Z,16.50
2023-01-13T14:55:12.467Z,18.40
2023-01-13T14:57:41.635Z,17.30
2023-01-13T15:00:14.997Z,18.70
2023-01-13T15:02:43.131Z,18.10
2023-01-13T15:05:19.631Z,18.80
2023-01-13T15:07:50.790Z,18.20
2023-01-13T15:10:19.005Z,16.60
2023-01-13T15:12:46.207Z,17.60
2023-01-13T15:15:35.819Z,18.60
2023-01-13T15:18:21.676Z,18.10
2023-01-13T15:20:51.050Z,18.70
2023-01-13T15:23:19.257Z,20.10
2023-01-13T15:25:46.613Z,19.80
2023-01-13T15:28:21.755Z,18.30
2023-01-13T15:30:49.787Z,17.30
2023-01-13T15:33:17.182Z,17.80
2023-01-13T15:35:46.193Z,17.70
2023-01-13T15:38:14.863Z,13.80
2023-01-13T15:40:46.007Z,19.20
2023-01-13T15:43:36.408Z,19.60
2023-01-13T15:46:23.293Z,18.30
2023-01-13T15:48:53.167Z,17.60
2023-01-13T15:51:22.123Z,18.90
2023-01-13T15:53:49.278Z,18.80
2023-01-13T15:56:22.648Z,17.30
2023-01-13T15:58:49.725Z,17.60
2023-01-13T16:01:16.938Z,18.40
2023-01-13T20:22:07.954Z,19.60
2023-01-13T20:24:35.309Z,18.50
2023-01-13T20:27:02.561Z,18.80
2023-01-13T20:29:29.930Z,18.70
2023-01-13T20:31:57.116Z,17.40
2023-01-13T20:34:24.946Z,18.90
2023-01-13T20:36:52.088Z,18.70
2023-01-13T20:39:21.386Z,19.00
2023-01-13T20:42:07.101Z,18.70
2023-01-13T20:44:34.327Z,18.30
2023-01-13T20:47:02.875Z,17.10
2023-01-13T20:49:30.581Z,18.70
2023-01-13T20:51:57.943Z,17.30
2023-01-13T20:54:25.190Z,18.90
2023-01-13T20:56:52.341Z,18.40
2023-01-13T20:59:19.510Z,17.40
2023-01-13T21:01:46.765Z,16.40
2023-01-13T21:04:13.997Z,17.70
2023-01-13T21:06:41.868Z,17.20
2023-01-13T21:09:09.324Z,18.80
2023-01-13T21:11:55.320Z,17.30
2023-01-13T21:14:42.334Z,17.60
2023-01-13T21:17:33.038Z,17.10
2023-01-13T21:20:00.295Z,15.60
2023-01-13T21:22:27.454Z,16.80
2023-01-13T21:24:54.593Z,16.10
2023-01-13T21:27:21.750Z,15.90
2023-01-13T21:29:48.895Z,16.10
2023-01-13T21:32:16.252Z,17.10
2023-01-13T21:34:43.403Z,16.00
2023-01-13T21:37:10.563Z,15.40
2023-01-13T21:39:37.707Z,15.10
2023-01-13T21:42:23.615Z,15.30
2023-01-13T21:45:09.763Z,16.30
2023-01-13T21:47:49.135Z,15.40
2023-01-13T21:50:20.964Z,16.90
2023-01-13T21:52:48.869Z,15.80
2023-01-13T21:55:28.004Z,14.60
2023-01-13T21:58:12.780Z,11.40
2023-01-13T22:00:41.056Z,15.90
2023-01-13T22:03:08.834Z,15.90
2023-01-13T22:05:36.180Z,17.30
2023-01-13T22:08:03.856Z,16.90
2023-01-13T22:10:31.814Z,16.60
2023-01-13T22:13:20.607Z,15.20
2023-01-13T22:15:47.831Z,15.70
2023-01-13T22:18:15.073Z,16.00
2023-01-13T22:20:42.430Z,17.10
2023-01-13T22:23:09.581Z,17.20
2023-01-13T22:25:36.735Z,16.90
2023-01-13T22:28:06.348Z,17.00
2023-01-13T22:30:33.502Z,15.30
2023-01-13T22:33:00.751Z,16.80
2023-01-13T22:35:27.815Z,16.50
2023-01-13T22:37:54.949Z,17.60
2023-01-13T22:40:22.203Z,16.70
2023-01-13T22:42:49.256Z,17.70
2023-01-13T22:45:16.621Z,17.30
2023-01-13T22:47:43.762Z,17.80
2023-01-13T22:50:12.748Z,16.70
2023-01-13T22:52:39.915Z,16.20
2023-01-13T22:55:07.689Z,16.40
2023-01-13T22:57:46.979Z,16.40
2023-01-13T23:00:19.261Z,18.30
2023-01-13T23:02:46.955Z,18.60
2023-01-13T23:05:14.205Z,17.90
2023-01-13T23:07:41.557Z,18.10
2023-01-13T23:10:09.486Z,16.10
2023-01-13T23:12:36.577Z,16.20
2023-01-13T23:15:05.372Z,16.60
2023-01-13T23:17:32.520Z,17.90
2023-01-13T23:19:59.664Z,17.80
2023-01-13T23:22:26.815Z,17.10
2023-01-13T23:24:53.972Z,17.80
2023-01-13T23:27:21.120Z,18.00
2023-01-13T23:29:49.297Z,16.70
2023-01-13T23:32:16.444Z,16.40
2023-01-13T23:34:43.594Z,16.50
2023-01-13T23:37:10.754Z,18.00
2023-01-13T23:39:37.900Z,17.20
2023-01-13T23:42:05.054Z,18.40
2023-01-13T23:44:32.200Z,17.50
2023-01-13T23:46:59.356Z,15.70
2023-01-13T23:49:26.449Z,16.50
2023-01-13T23:51:53.762Z,17.00
2023-01-13T23:54:20.908Z,16.20
2023-01-13T23:56:49.902Z,17.70
2023-01-13T23:59:17.057Z,13.10
